»·PEaware :: AAY130 KFAT-KLAS

AAY130 :: KFAT-KLAS

FLIGHT INFORMATION

Flight Status: Arrived
Operator:
Allegiant Air
More flights by this operator :: More flights under this callsign
Pilot: Ben L. (6391)
Aircraft: MCDONNELL-DOUGLAS MD-88
(MD88)
More flights by this aircraft type
Origin: KFAT Fresno Yosemite Intl
United States
Destination: KLAS McCarran Intl
United States
More flights between these airports :: More routes between these airports
Route: +YOSE3 FRA CABAB Q162 KENNO TACUS SUNST4
File this flight plan on PilotEdge
Remarks:
Altitude:
(Current/Filed)
33,000ft
Speed:
(Current/Filed)
400kts
Departed: 06-Mar-20 01:20 PM
Arrived: 06-Mar-20 02:12 PM
Distance/Time
Traveled:
224nm/0:52
Distance/Time
To Go:
Arrived

Flight Plot

Page will automatically refresh every two minutes.

Flight plan parsing failed; only flown route is shown


Map Options




Map Legend


Flown Route
Filed Route
Departure Airport
Arrival Airport
Navaid (VOR, NDB)
Fix

Horizontal Profiles

Position Reports

Time Latitude Longitude Heading Altitude Ground
Speed
06-Mar-20 12:37 36.771892 -119.719062 128 334ft 0kts
06-Mar-20 12:38 36.771892 -119.719062 128 334ft 0kts
06-Mar-20 12:39 36.771892 -119.719062 128 334ft 0kts
06-Mar-20 12:40 36.771892 -119.719062 128 334ft 0kts
06-Mar-20 12:41 36.771892 -119.719062 128 334ft 0kts
06-Mar-20 12:42 36.771892 -119.719062 128 334ft 0kts
06-Mar-20 12:43 36.771892 -119.719062 128 334ft 0kts
06-Mar-20 12:44 36.771892 -119.719062 128 334ft 0kts
06-Mar-20 12:45 36.771892 -119.719062 128 334ft 0kts
06-Mar-20 12:46 36.771892 -119.719062 128 334ft 0kts
06-Mar-20 12:47 36.771892 -119.719062 128 334ft 0kts
06-Mar-20 12:48 36.771892 -119.719062 128 334ft 0kts
06-Mar-20 12:49 36.771892 -119.719062 128 334ft 0kts
06-Mar-20 12:50 36.771892 -119.719062 128 334ft 0kts
06-Mar-20 12:51 36.771892 -119.719062 128 334ft 0kts
06-Mar-20 12:52 36.771892 -119.719062 128 334ft 0kts
06-Mar-20 12:53 36.771892 -119.719062 128 334ft 0kts
06-Mar-20 12:54 36.771892 -119.719062 128 334ft 0kts
06-Mar-20 12:55 36.771892 -119.719062 128 334ft 0kts
06-Mar-20 12:56 36.771892 -119.719062 128 334ft 0kts
06-Mar-20 12:57 36.771892 -119.719062 128 334ft 0kts
06-Mar-20 12:58 36.771892 -119.719062 128 334ft 0kts
06-Mar-20 12:59 36.771892 -119.719062 128 334ft 0kts
06-Mar-20 13:00 36.771892 -119.719062 128 334ft 0kts
06-Mar-20 13:01 36.771892 -119.719062 128 334ft 0kts
06-Mar-20 13:02 36.771892 -119.719062 128 334ft 0kts
06-Mar-20 13:03 36.771898 -119.719071 128 334ft 1kts
06-Mar-20 13:04 36.771978 -119.719780 65 334ft 2kts
06-Mar-20 13:05 36.771749 -119.720116 31 334ft 0kts
06-Mar-20 13:06 36.771749 -119.720116 31 334ft 0kts
06-Mar-20 13:07 36.771749 -119.720116 31 334ft 0kts
06-Mar-20 13:08 36.772703 -119.717975 116 334ft 12kts
06-Mar-20 13:09 36.771293 -119.714274 126 334ft 13kts
06-Mar-20 13:10 36.767831 -119.708202 123 334ft 18kts
06-Mar-20 13:11 36.768021 -119.704452 32 334ft 3kts
06-Mar-20 13:12 36.768086 -119.704399 32 334ft 0kts
06-Mar-20 13:13 36.768086 -119.704399 33 334ft 0kts
06-Mar-20 13:14 36.768086 -119.704399 33 334ft 0kts
06-Mar-20 13:15 36.768086 -119.704399 33 334ft 0kts
06-Mar-20 13:16 36.768086 -119.704399 33 334ft 0kts
06-Mar-20 13:17 36.768086 -119.704399 33 334ft 0kts
06-Mar-20 13:18 36.768141 -119.704354 33 334ft 3kts
06-Mar-20 13:19 36.771862 -119.708865 305 334ft 81kts
06-Mar-20 13:20 36.796932 -119.752366 304 1556ft 179kts
06-Mar-20 13:21 36.835308 -119.793025 9 3601ft 201kts
06-Mar-20 13:22 36.876626 -119.740356 32 5337ft 256kts
06-Mar-20 13:23 36.945162 -119.695040 27 7827ft 294kts
06-Mar-20 13:24 37.020578 -119.648007 28 10338ft 311kts
06-Mar-20 13:25 37.100062 -119.594571 46 11617ft 359kts
06-Mar-20 13:26 37.128633 -119.483755 83 13668ft 360kts
06-Mar-20 13:27 37.150964 -119.359054 80 15713ft 374kts
06-Mar-20 13:28 37.173836 -119.240915 80 17393ft 385kts
06-Mar-20 13:29 37.199746 -119.108514 80 18995ft 396kts
06-Mar-20 13:30 37.226521 -118.972503 80 20413ft 406kts
06-Mar-20 13:31 37.254231 -118.832588 79 21669ft 416kts
06-Mar-20 13:32 37.278640 -118.689658 90 22810ft 420kts
06-Mar-20 13:33 37.279484 -118.542881 92 23840ft 426kts
06-Mar-20 13:34 37.281020 -118.392282 92 24790ft 433kts
06-Mar-20 13:35 37.282640 -118.255594 93 25572ft 439kts
06-Mar-20 13:36 37.284665 -118.101027 92 26352ft 445kts
06-Mar-20 13:37 37.286930 -117.943976 92 27058ft 451kts
06-Mar-20 13:38 37.289431 -117.785068 92 27686ft 456kts
06-Mar-20 13:39 37.292175 -117.624647 92 28206ft 462kts
06-Mar-20 13:40 37.295170 -117.462278 92 28843ft 464kts
06-Mar-20 13:41 37.298313 -117.302642 93 29496ft 466kts
06-Mar-20 13:42 37.254878 -117.174043 143 29896ft 439kts
06-Mar-20 13:43 37.175485 -117.055712 130 30438ft 434kts
06-Mar-20 13:44 37.105068 -116.933608 129 31502ft 425kts
06-Mar-20 13:45 37.018294 -116.844155 150 32922ft 394kts
06-Mar-20 13:46 36.926061 -116.768186 149 33239ft 404kts
06-Mar-20 13:47 36.844616 -116.700299 148 33074ft 420kts
06-Mar-20 13:48 36.754803 -116.608925 138 31130ft 417kts
06-Mar-20 13:49 36.671391 -116.510616 139 29001ft 406kts
06-Mar-20 13:50 36.590113 -116.415758 139 26926ft 396kts
06-Mar-20 13:51 36.518101 -116.331687 139 25074ft 386kts
06-Mar-20 13:52 36.442129 -116.239960 134 23189ft 373kts
06-Mar-20 13:53 36.374315 -116.143768 134 21216ft 363kts
06-Mar-20 13:54 36.308195 -116.051055 134 19303ft 353kts
06-Mar-20 13:55 36.243549 -115.960409 134 17383ft 344kts
06-Mar-20 13:56 36.187973 -115.866688 113 16084ft 323kts
06-Mar-20 13:57 36.156276 -115.763035 114 14444ft 320kts
06-Mar-20 13:58 36.123697 -115.661178 114 12961ft 309kts
06-Mar-20 13:59 36.093518 -115.567857 115 12244ft 275kts
06-Mar-20 14:00 36.065680 -115.482158 115 11644ft 265kts
06-Mar-20 14:01 36.038070 -115.396987 114 10866ft 266kts
06-Mar-20 14:02 36.026062 -115.315362 97 9933ft 263kts
06-Mar-20 14:03 36.020211 -115.227011 98 8898ft 252kts
06-Mar-20 14:04 36.033428 -115.148404 38 8042ft 247kts
06-Mar-20 14:05 36.084667 -115.093706 46 7831ft 243kts
06-Mar-20 14:06 36.129914 -115.043407 24 7052ft 201kts
06-Mar-20 14:07 36.177835 -115.064406 313 6045ft 196kts
06-Mar-20 14:09 36.173665 -115.114962 199 4409ft 183kts
06-Mar-20 14:10 36.129470 -115.134477 206 2804ft 153kts
06-Mar-20 14:11 36.092087 -115.157237 205 2116ft 152kts
06-Mar-20 14:12 36.075397 -115.166581 168 2177ft 15kts
06-Mar-20 14:13 36.075162 -115.164799 49 2172ft 6kts
06-Mar-20 14:14 36.079561 -115.162259 25 2152ft 19kts
06-Mar-20 14:15 36.081626 -115.157233 89 2131ft 18kts
06-Mar-20 14:16 36.082797 -115.154549 343 2120ft 8kts
06-Mar-20 14:17 36.084824 -115.154473 12 2114ft 0kts

Navigation Log

Ident Type
Flight plan parsing failed, navigation log unavailable